createdAt,value
2018-03-18T00:00:09.303Z,-0.94
2018-03-18T00:02:37.456Z,-0.99
2018-03-18T00:05:05.566Z,-0.98
2018-03-18T00:07:33.638Z,-1.00
2018-03-18T00:10:01.750Z,-0.98
2018-03-18T00:12:29.997Z,-0.99
2018-03-18T00:14:58.609Z,-1.03
2018-03-18T00:17:26.766Z,-0.99
2018-03-18T00:19:54.869Z,-0.99
2018-03-18T00:22:22.949Z,-1.01
2018-03-18T00:24:51.099Z,-1.00
2018-03-18T00:27:19.174Z,-0.97
2018-03-18T00:29:47.262Z,-1.03
2018-03-18T00:32:15.397Z,-1.01
2018-03-18T00:34:43.562Z,-1.03
2018-03-18T00:37:11.787Z,-1.06
2018-03-18T00:39:39.878Z,-1.04
2018-03-18T00:42:07.975Z,-1.10
2018-03-18T00:44:36.081Z,-1.08
2018-03-18T00:47:04.179Z,-1.06
2018-03-18T00:49:32.343Z,-0.99
2018-03-18T00:52:01.275Z,-1.03
2018-03-18T00:54:29.401Z,-1.05
2018-03-18T00:56:57.498Z,-1.06
2018-03-18T00:59:26.056Z,-1.00
2018-03-18T01:01:54.172Z,-1.06
2018-03-18T01:04:22.263Z,-1.02
2018-03-18T01:06:50.391Z,-1.04
2018-03-18T01:09:18.496Z,-1.00
2018-03-18T01:11:46.666Z,-1.07
2018-03-18T01:14:15.545Z,-1.01
2018-03-18T01:16:43.677Z,-1.08
2018-03-18T01:19:11.797Z,-1.10
2018-03-18T01:21:39.897Z,-1.04
2018-03-18T01:24:08.012Z,-1.07
2018-03-18T01:26:36.614Z,-1.11
2018-03-18T01:29:04.765Z,-1.13
2018-03-18T01:31:32.841Z,-1.12
2018-03-18T01:34:01.734Z,-1.10
2018-03-18T01:36:29.895Z,-1.09
2018-03-18T01:38:57.972Z,-1.08
2018-03-18T01:41:26.079Z,-1.10
2018-03-18T01:43:54.212Z,-1.11
2018-03-18T01:46:22.272Z,-1.13
2018-03-18T01:48:50.378Z,-1.13
2018-03-18T01:51:18.940Z,-1.08
2018-03-18T01:53:47.026Z,-1.12
2018-03-18T01:56:15.130Z,-1.08
2018-03-18T01:58:43.277Z,-1.07
2018-03-18T02:01:11.376Z,-1.15
2018-03-18T02:03:39.492Z,-1.11
2018-03-18T02:06:07.570Z,-1.19
2018-03-18T02:08:35.664Z,-1.16
2018-03-18T02:11:03.750Z,-1.18
2018-03-18T02:13:31.915Z,-1.17
2018-03-18T02:16:00.033Z,-1.22
2018-03-18T02:18:28.216Z,-1.21
2018-03-18T02:20:56.335Z,-1.23
2018-03-18T02:23:24.422Z,-1.23
2018-03-18T02:25:53.530Z,-1.24
2018-03-18T02:28:21.630Z,-1.37
2018-03-18T02:30:49.867Z,-1.41
2018-03-18T02:33:17.951Z,-1.40
2018-03-18T02:35:46.057Z,-1.39
2018-03-18T02:51:14.194Z,-1.51
2018-03-18T02:53:42.412Z,-1.50
2018-03-18T02:56:10.500Z,-1.52
2018-03-18T02:58:38.619Z,-1.55
2018-03-18T03:01:06.715Z,-1.58
2018-03-18T03:03:34.809Z,-1.53
2018-03-18T03:06:03.063Z,-1.57
2018-03-18T03:08:31.203Z,-1.57
2018-03-18T03:10:59.296Z,-1.61
2018-03-18T03:13:28.438Z,-1.62
2018-03-18T03:15:56.665Z,-1.62
2018-03-18T03:18:24.769Z,-1.65
2018-03-18T03:20:52.866Z,-1.65
2018-03-18T03:23:20.972Z,-1.61
2018-03-18T03:25:49.064Z,-1.68
2018-03-18T03:28:17.154Z,-1.65
2018-03-18T03:30:45.279Z,-1.61
2018-03-18T03:33:14.323Z,-1.66
2018-03-18T03:35:42.436Z,-1.65
2018-03-18T03:38:10.534Z,-1.69
2018-03-18T03:40:38.982Z,-1.65
2018-03-18T03:43:07.079Z,-1.66
2018-03-18T03:45:35.205Z,-1.74
2018-03-18T03:48:03.298Z,-1.68
2018-03-18T03:50:31.397Z,-1.71
2018-03-18T03:52:59.485Z,-1.75
2018-03-18T03:55:27.622Z,-1.76
2018-03-18T03:57:55.824Z,-1.76
2018-03-18T04:00:23.915Z,-1.74
2018-03-18T04:02:52.092Z,-1.77
2018-03-18T04:05:20.218Z,-1.84
2018-03-18T04:07:48.302Z,-1.87
2018-03-18T04:10:16.434Z,-1.88
2018-03-18T04:12:44.564Z,-1.82
2018-03-18T04:15:13.499Z,-1.85
2018-03-18T04:17:41.577Z,-1.85
2018-03-18T04:20:09.696Z,-1.90
2018-03-18T04:22:37.802Z,-1.89
2018-03-18T04:25:05.921Z,-1.91
2018-03-18T04:27:34.057Z,-1.93
2018-03-18T04:30:03.151Z,-1.91
2018-03-18T04:32:31.321Z,-1.93
2018-03-18T04:34:59.411Z,-1.97
2018-03-18T04:37:28.513Z,-1.96
2018-03-18T04:39:56.693Z,-1.91
2018-03-18T04:42:24.810Z,-1.94
2018-03-18T04:44:52.898Z,-1.94
2018-03-18T04:47:20.985Z,-1.98
2018-03-18T04:49:49.093Z,-1.98
2018-03-18T04:52:17.197Z,-2.02
2018-03-18T04:54:45.301Z,-1.97
2018-03-18T04:57:13.418Z,-1.97
2018-03-18T04:59:41.527Z,-2.01
2018-03-18T05:02:09.625Z,-2.00
2018-03-18T05:04:37.760Z,-2.01
2018-03-18T05:07:06.138Z,-1.98
2018-03-18T05:09:34.231Z,-1.97
2018-03-18T05:12:02.321Z,-1.98
2018-03-18T05:14:30.433Z,-1.94
2018-03-18T05:16:58.565Z,-1.92
2018-03-18T05:19:26.715Z,-1.90
2018-03-18T05:21:54.979Z,-1.85
2018-03-18T05:24:23.085Z,-1.82
2018-03-18T05:26:51.191Z,-1.83
2018-03-18T05:29:19.315Z,-1.81
2018-03-18T05:31:47.445Z,-1.79
2018-03-18T05:34:15.522Z,-1.86
2018-03-18T05:36:44.329Z,-1.82
2018-03-18T05:39:12.427Z,-1.82
2018-03-18T05:41:40.539Z,-1.83
2018-03-18T05:44:08.664Z,-1.81
2018-03-18T05:46:36.783Z,-1.81
2018-03-18T05:49:04.888Z,-1.80
2018-03-18T05:51:32.977Z,-1.85
2018-03-18T05:54:01.077Z,-1.88
2018-03-18T05:56:29.206Z,-1.85
2018-03-18T05:58:57.393Z,-1.84
2018-03-18T06:01:25.539Z,-1.89
2018-03-18T06:03:53.642Z,-1.90
2018-03-18T06:06:21.725Z,-1.83
2018-03-18T06:08:49.815Z,-1.83
2018-03-18T06:11:17.927Z,-1.91
2018-03-18T06:13:46.015Z,-1.84
2018-03-18T06:16:14.093Z,-1.77
2018-03-18T06:18:42.337Z,-1.86
2018-03-18T06:21:10.411Z,-1.88
2018-03-18T06:23:39.540Z,-1.79
2018-03-18T06:26:07.652Z,-1.77
2018-03-18T06:28:35.791Z,-1.91
2018-03-18T06:31:04.644Z,-1.88
2018-03-18T06:33:32.806Z,-1.91
2018-03-18T06:36:00.905Z,-1.76
2018-03-18T06:38:29.010Z,-1.71
2018-03-18T06:40:57.134Z,-1.63
2018-03-18T06:43:25.324Z,-1.61
2018-03-18T06:45:53.412Z,-1.41
2018-03-18T06:48:22.122Z,-1.55
2018-03-18T06:50:50.224Z,-1.41
2018-03-18T06:53:18.303Z,-1.11
2018-03-18T06:55:46.415Z,-1.14
2018-03-18T06:58:14.493Z,-1.23
2018-03-18T07:00:42.605Z,-1.40
2018-03-18T07:03:10.709Z,-1.30
2018-03-18T07:05:38.841Z,-1.17
2018-03-18T07:08:06.926Z,-1.00
2018-03-18T07:10:35.036Z,-1.01
2018-03-18T07:13:03.131Z,-0.81
2018-03-18T07:15:31.234Z,-0.98
2018-03-18T07:17:59.336Z,-0.83
2018-03-18T07:20:27.447Z,-0.83
2018-03-18T07:22:55.540Z,-0.97
2018-03-18T07:25:23.923Z,-1.39
2018-03-18T07:27:52.056Z,-1.50
2018-03-18T07:30:20.151Z,-1.49
2018-03-18T07:32:48.259Z,-1.49
2018-03-18T07:35:16.615Z,-1.55
2018-03-18T07:37:45.304Z,-1.64
2018-03-18T07:40:14.146Z,-1.65
2018-03-18T07:42:42.281Z,-1.43
2018-03-18T07:45:10.376Z,-1.27
2018-03-18T07:47:38.477Z,-1.51
2018-03-18T07:50:07.555Z,-1.67
2018-03-18T07:52:35.693Z,-1.77
2018-03-18T07:55:03.813Z,-1.73
2018-03-18T07:57:32.681Z,-1.51
2018-03-18T08:00:00.781Z,-1.72
2018-03-18T08:02:29.282Z,-1.72
2018-03-18T08:04:57.655Z,-1.32
2018-03-18T08:07:25.792Z,-1.30
2018-03-18T08:09:53.833Z,-1.61
2018-03-18T08:12:21.965Z,-1.69
2018-03-18T08:14:50.036Z,-1.59
2018-03-18T08:17:18.211Z,-1.08
2018-03-18T08:19:46.300Z,-1.03
2018-03-18T08:22:14.489Z,-0.87
2018-03-18T08:24:42.605Z,-0.32
2018-03-18T08:27:10.751Z,-0.30
2018-03-18T08:29:38.863Z,-0.56
2018-03-18T08:32:07.045Z,-0.66
2018-03-18T08:34:35.117Z,-0.92
2018-03-18T08:37:03.219Z,-1.11
2018-03-18T08:39:31.323Z,-1.52
2018-03-18T08:41:59.417Z,-1.33
2018-03-18T08:44:27.524Z,-1.42
2018-03-18T08:46:55.635Z,-1.13
2018-03-18T08:49:23.725Z,-1.31
2018-03-18T08:51:51.823Z,-1.27
2018-03-18T08:54:20.289Z,-1.04
2018-03-18T08:56:49.417Z,-0.90
2018-03-18T08:59:17.849Z,-0.58
2018-03-18T09:01:45.942Z,-0.43
2018-03-18T09:04:14.105Z,-0.77
2018-03-18T09:06:42.271Z,-0.58
2018-03-18T09:09:10.322Z,-0.73
2018-03-18T09:11:38.472Z,-1.05
2018-03-18T09:14:06.591Z,-0.89
2018-03-18T09:16:34.687Z,-1.19
2018-03-18T09:19:02.786Z,-1.14
2018-03-18T09:21:30.882Z,-1.17
2018-03-18T09:23:58.981Z,-1.00
2018-03-18T09:26:27.817Z,-1.02
2018-03-18T09:28:55.917Z,-0.74
2018-03-18T09:31:24.010Z,-0.98
2018-03-18T09:33:52.366Z,-1.03
2018-03-18T09:36:20.479Z,-0.93
2018-03-18T09:38:48.599Z,-0.74
2018-03-18T09:41:16.704Z,-0.69
2018-03-18T09:43:44.815Z,-0.47
2018-03-18T09:46:13.693Z,-0.24
2018-03-18T09:48:41.815Z,-0.46
2018-03-18T09:51:09.947Z,-0.63
2018-03-18T09:53:38.119Z,-0.60
2018-03-18T09:56:06.250Z,-0.60
2018-03-18T09:58:34.372Z,-0.69
2018-03-18T10:01:02.472Z,-0.32
2018-03-18T10:03:30.558Z,-0.06
2018-03-18T10:05:59.144Z,0.11
2018-03-18T10:08:27.250Z,-0.15
2018-03-18T10:10:55.339Z,-0.16
2018-03-18T10:13:23.448Z,-0.31
2018-03-18T10:28:51.587Z,-0.21
2018-03-18T10:31:20.271Z,-0.22
2018-03-18T10:33:48.361Z,-0.42
2018-03-18T10:36:21.413Z,-0.37
2018-03-18T10:38:49.506Z,-0.45
2018-03-18T10:41:17.688Z,-0.47
2018-03-18T10:43:45.801Z,-0.33
2018-03-18T10:46:13.894Z,-0.19
2018-03-18T10:48:42.031Z,-0.25
2018-03-18T10:51:10.146Z,-0.18
2018-03-18T10:53:38.221Z,-0.10
2018-03-18T10:56:06.633Z,-0.40
2018-03-18T10:58:34.726Z,-0.33
2018-03-18T11:01:09.178Z,0.08
2018-03-18T11:03:37.264Z,0.13
2018-03-18T11:06:05.362Z,0.09
2018-03-18T11:08:33.448Z,-0.11
2018-03-18T11:11:01.603Z,-0.06
2018-03-18T11:13:29.690Z,0.09
2018-03-18T11:15:57.889Z,0.36
2018-03-18T11:18:25.974Z,0.15
2018-03-18T11:20:54.089Z,0.11
2018-03-18T11:23:22.159Z,0.16
2018-03-18T11:25:50.277Z,0.35
2018-03-18T11:28:18.799Z,0.18
2018-03-18T11:30:46.888Z,0.32
2018-03-18T11:33:14.984Z,0.62
2018-03-18T11:35:43.160Z,0.00
2018-03-18T11:38:11.470Z,0.31
2018-03-18T11:40:39.901Z,0.34
2018-03-18T11:43:08.126Z,0.08
2018-03-18T11:45:36.207Z,0.27
2018-03-18T11:48:04.350Z,0.42
2018-03-18T11:50:32.498Z,0.64
2018-03-18T11:53:00.570Z,0.48
2018-03-18T11:55:28.736Z,0.38
2018-03-18T11:57:56.858Z,0.51
2018-03-18T12:00:24.952Z,0.74
2018-03-18T12:02:53.077Z,0.94
2018-03-18T12:05:21.218Z,0.94
2018-03-18T12:07:49.366Z,0.76
2018-03-18T12:10:17.438Z,0.63
2018-03-18T12:12:45.540Z,0.76
2018-03-18T12:15:13.658Z,0.97
2018-03-18T12:17:41.825Z,0.83
2018-03-18T12:20:09.976Z,0.75
2018-03-18T12:22:38.071Z,0.96
2018-03-18T12:25:06.173Z,1.26
2018-03-18T12:27:34.254Z,1.28
2018-03-18T12:30:02.362Z,1.51
2018-03-18T12:32:30.495Z,1.15
2018-03-18T12:34:58.600Z,1.14
2018-03-18T12:37:26.708Z,1.35
2018-03-18T12:40:06.769Z,1.14
2018-03-18T12:42:46.722Z,1.15
2018-03-18T12:45:14.837Z,1.08
2018-03-18T12:47:42.934Z,1.01
2018-03-18T12:50:11.030Z,1.29
2018-03-18T12:52:39.114Z,1.39
2018-03-18T12:55:07.850Z,0.94
2018-03-18T12:57:36.617Z,0.75
2018-03-18T13:00:04.694Z,0.93
2018-03-18T13:02:32.870Z,0.94
2018-03-18T13:18:06.009Z,1.17
2018-03-18T13:20:34.122Z,1.29
2018-03-18T13:23:02.792Z,1.36
2018-03-18T13:25:30.893Z,1.57
2018-03-18T13:27:58.982Z,1.80
2018-03-18T13:30:27.078Z,1.70
2018-03-18T13:32:55.183Z,1.60
2018-03-18T13:35:23.272Z,1.39
2018-03-18T13:37:51.410Z,1.44
2018-03-18T13:40:19.516Z,1.10
2018-03-18T13:42:47.610Z,1.19
2018-03-18T13:45:15.792Z,1.46
2018-03-18T13:47:43.882Z,1.41
2018-03-18T13:50:11.970Z,1.64
2018-03-18T13:52:40.092Z,1.75
2018-03-18T13:55:08.208Z,1.39
2018-03-18T13:57:36.278Z,1.63
2018-03-18T14:00:04.408Z,1.52
2018-03-18T14:02:33.390Z,1.38
2018-03-18T14:05:01.502Z,1.44
2018-03-18T14:07:29.599Z,1.36
2018-03-18T14:09:57.705Z,1.50
2018-03-18T14:12:25.814Z,1.30
2018-03-18T14:14:53.900Z,1.36
2018-03-18T14:17:22.026Z,1.38
2018-03-18T14:19:50.151Z,1.49
2018-03-18T14:22:18.233Z,1.90
2018-03-18T14:24:46.341Z,1.95
2018-03-18T14:27:14.458Z,1.86
2018-03-18T14:29:42.614Z,1.96
2018-03-18T14:32:10.715Z,1.56
2018-03-18T14:34:38.866Z,1.60
2018-03-18T14:50:06.987Z,1.25
2018-03-18T14:52:35.103Z,1.47
2018-03-18T14:55:03.179Z,1.48
2018-03-18T14:57:31.283Z,1.34
2018-03-18T14:59:59.367Z,1.20
2018-03-18T15:02:27.472Z,1.14
2018-03-18T15:04:55.586Z,1.37
2018-03-18T15:07:23.680Z,1.49
2018-03-18T15:09:51.909Z,1.78
2018-03-18T15:12:19.951Z,1.59
2018-03-18T15:14:48.098Z,1.58
2018-03-18T15:17:16.920Z,1.60
2018-03-18T15:19:45.058Z,1.64
2018-03-18T15:22:13.191Z,1.57
2018-03-18T15:24:41.299Z,1.57
2018-03-18T15:27:09.386Z,1.70
2018-03-18T15:29:37.474Z,1.59
2018-03-18T15:32:05.556Z,1.79
2018-03-18T15:34:33.703Z,1.94
2018-03-18T15:37:01.782Z,1.86
2018-03-18T15:39:29.915Z,1.72
2018-03-18T15:41:58.018Z,1.52
2018-03-18T15:44:26.171Z,1.69
2018-03-18T15:46:54.414Z,1.51
2018-03-18T15:49:22.621Z,1.72
2018-03-18T15:51:50.967Z,1.60
2018-03-18T15:54:19.048Z,1.62
2018-03-18T15:56:48.107Z,1.69
2018-03-18T15:59:16.276Z,1.61
2018-03-18T16:01:44.388Z,1.56
2018-03-18T16:04:12.466Z,1.50
2018-03-18T16:06:40.566Z,1.39
2018-03-18T16:09:09.515Z,1.59
2018-03-18T16:11:37.713Z,1.40
2018-03-18T16:14:05.830Z,1.59
2018-03-18T16:16:33.928Z,1.52
2018-03-18T16:19:02.043Z,1.59
2018-03-18T16:21:30.164Z,1.75
2018-03-18T16:23:58.253Z,1.51
2018-03-18T16:26:26.330Z,1.46
2018-03-18T16:28:54.479Z,1.55
2018-03-18T16:31:23.292Z,1.47
2018-03-18T16:33:52.388Z,1.52
2018-03-18T16:36:20.530Z,1.45
2018-03-18T16:38:48.747Z,1.52
2018-03-18T16:41:16.820Z,1.62
2018-03-18T16:43:44.979Z,1.39
2018-03-18T16:46:13.142Z,1.49
2018-03-18T16:48:41.819Z,1.38
2018-03-18T16:51:09.938Z,1.31
2018-03-18T16:53:38.036Z,1.14
2018-03-18T16:56:06.558Z,1.34
2018-03-18T16:58:34.667Z,1.32
2018-03-18T17:01:02.758Z,1.23
2018-03-18T17:03:30.869Z,1.28
2018-03-18T17:05:59.041Z,1.38
2018-03-18T17:08:27.115Z,1.35
2018-03-18T17:10:55.288Z,1.39
2018-03-18T17:13:23.663Z,1.22
2018-03-18T17:15:51.916Z,1.26
2018-03-18T17:18:20.041Z,1.19
2018-03-18T17:20:48.177Z,1.21
2018-03-18T17:23:16.318Z,1.15
2018-03-18T17:25:45.039Z,1.24
2018-03-18T17:28:13.150Z,1.09
2018-03-18T17:30:41.256Z,1.03
2018-03-18T17:33:09.354Z,1.09
2018-03-18T17:35:37.555Z,0.96
2018-03-18T17:38:05.698Z,0.92
2018-03-18T17:40:33.874Z,0.89
2018-03-18T17:43:01.987Z,0.93
2018-03-18T17:45:41.876Z,0.86
2018-03-18T17:48:21.933Z,0.85
2018-03-18T17:51:02.875Z,0.82
2018-03-18T17:53:44.885Z,0.76
2018-03-18T17:56:24.957Z,0.75
2018-03-18T17:58:53.078Z,0.74
2018-03-18T18:01:21.189Z,0.74
2018-03-18T18:03:49.291Z,0.74
2018-03-18T18:06:17.387Z,0.70
2018-03-18T18:08:45.513Z,0.72
2018-03-18T18:11:13.616Z,0.71
2018-03-18T18:13:41.734Z,0.69
2018-03-18T18:16:10.137Z,0.61
2018-03-18T18:18:38.205Z,0.65
2018-03-18T18:21:06.302Z,0.64
2018-03-18T18:23:34.390Z,0.59
2018-03-18T18:26:02.561Z,0.60
2018-03-18T18:28:30.680Z,0.53
2018-03-18T18:30:58.747Z,0.50
2018-03-18T18:33:27.155Z,0.46
2018-03-18T18:35:55.293Z,0.46
2018-03-18T18:38:23.411Z,0.48
2018-03-18T18:40:51.505Z,0.47
2018-03-18T18:43:19.656Z,0.44
2018-03-18T18:45:47.729Z,0.45
2018-03-18T18:48:15.808Z,0.41
2018-03-18T18:50:44.394Z,0.37
2018-03-18T18:53:12.502Z,0.36
2018-03-18T18:55:40.604Z,0.37
2018-03-18T18:58:08.726Z,0.36
2018-03-18T19:00:36.808Z,0.29
2018-03-18T19:03:05.297Z,0.28
2018-03-18T19:05:33.313Z,0.27
2018-03-18T19:08:01.424Z,0.25
2018-03-18T19:10:29.565Z,0.25
2018-03-18T19:12:57.738Z,0.25
2018-03-18T19:15:26.647Z,0.24
2018-03-18T19:17:54.869Z,0.18
2018-03-18T19:20:23.037Z,0.17
2018-03-18T19:22:51.207Z,0.17
2018-03-18T19:25:19.291Z,0.14
2018-03-18T19:27:48.279Z,0.15
2018-03-18T19:30:16.382Z,0.16
2018-03-18T19:32:44.789Z,0.09
2018-03-18T19:35:13.501Z,0.12
2018-03-18T19:37:41.681Z,0.09
2018-03-18T19:40:09.753Z,0.04
2018-03-18T19:42:37.843Z,0.06
2018-03-18T19:45:06.067Z,0.08
2018-03-18T19:47:39.096Z,0.01
2018-03-18T19:50:07.249Z,0.03
2018-03-18T19:52:35.319Z,0.00
2018-03-18T19:55:04.475Z,0.01
2018-03-18T19:57:32.893Z,0.00
2018-03-18T20:00:00.975Z,0.00
2018-03-18T20:02:29.071Z,0.00
2018-03-18T20:04:57.517Z,0.01
2018-03-18T20:07:26.025Z,-0.01
2018-03-18T20:09:54.155Z,0.00
2018-03-18T20:12:22.337Z,-0.04
2018-03-18T20:14:50.920Z,-0.04
2018-03-18T20:17:19.480Z,-0.08
2018-03-18T20:19:47.575Z,-0.05
2018-03-18T20:22:15.689Z,-0.04
2018-03-18T20:24:44.801Z,-0.09
2018-03-18T20:27:13.013Z,-0.08
2018-03-18T20:29:41.982Z,-0.11
2018-03-18T20:32:10.075Z,-0.08
2018-03-18T20:34:38.180Z,-0.08
2018-03-18T20:37:06.435Z,-0.06
2018-03-18T20:39:34.548Z,-0.12
2018-03-18T20:42:02.637Z,-0.16
2018-03-18T20:44:31.102Z,-0.16
2018-03-18T20:46:59.200Z,-0.14
2018-03-18T20:49:27.337Z,-0.16
2018-03-18T20:51:55.440Z,-0.19
2018-03-18T20:54:23.551Z,-0.22
2018-03-18T20:56:51.707Z,-0.17
2018-03-18T20:59:19.805Z,-0.22
2018-03-18T21:01:47.903Z,-0.24
2018-03-18T21:04:16.846Z,-0.24
2018-03-18T21:06:44.985Z,-0.25
2018-03-18T21:09:13.093Z,-0.27
2018-03-18T21:11:41.198Z,-0.25
2018-03-18T21:14:09.299Z,-0.25
2018-03-18T21:16:37.537Z,-0.26
2018-03-18T21:19:10.597Z,-0.31
2018-03-18T21:21:38.672Z,-0.30
2018-03-18T21:24:06.767Z,-0.34
2018-03-18T21:26:34.994Z,-0.33
2018-03-18T21:29:03.803Z,-0.35
2018-03-18T21:31:31.966Z,-0.37
2018-03-18T21:34:00.067Z,-0.35
2018-03-18T21:36:28.795Z,-0.34
2018-03-18T21:38:56.949Z,-0.35
2018-03-18T21:41:25.087Z,-0.38
2018-03-18T21:43:53.909Z,-0.35
2018-03-18T21:46:21.999Z,-0.41
2018-03-18T21:48:50.617Z,-0.41
2018-03-18T21:51:18.726Z,-0.44
2018-03-18T21:53:46.798Z,-0.40
2018-03-18T21:56:15.068Z,-0.42
2018-03-18T21:58:43.613Z,-0.45
2018-03-18T22:01:12.355Z,-0.46
2018-03-18T22:03:41.295Z,-0.42
2018-03-18T22:06:09.475Z,-0.44
2018-03-18T22:08:38.174Z,-0.44
2018-03-18T22:11:07.368Z,-0.50
2018-03-18T22:13:35.470Z,-0.51
2018-03-18T22:16:03.576Z,-0.52
2018-03-18T22:18:31.704Z,-0.52
2018-03-18T22:21:00.415Z,-0.52
2018-03-18T22:23:28.530Z,-0.48
2018-03-18T22:25:58.145Z,-0.52
2018-03-18T22:28:26.441Z,-0.50
2018-03-18T22:30:55.159Z,-0.54
2018-03-18T22:33:23.255Z,-0.55
2018-03-18T22:35:51.511Z,-0.55
2018-03-18T22:38:19.584Z,-0.57
2018-03-18T22:40:47.675Z,-0.55
2018-03-18T22:43:16.036Z,-0.55
2018-03-18T22:45:44.137Z,-0.58
2018-03-18T22:48:12.589Z,-0.57
2018-03-18T22:50:40.678Z,-0.61
2018-03-18T22:53:08.814Z,-0.57
2018-03-18T22:55:37.038Z,-0.56
2018-03-18T22:58:05.467Z,-0.56
2018-03-18T23:00:33.585Z,-0.63
2018-03-18T23:03:01.677Z,-0.60
2018-03-18T23:05:29.910Z,-0.60
2018-03-18T23:07:59.010Z,-0.60
2018-03-18T23:10:27.106Z,-0.60
2018-03-18T23:12:56.145Z,-0.66
2018-03-18T23:15:24.237Z,-0.60
2018-03-18T23:17:59.197Z,-0.63
2018-03-18T23:20:27.312Z,-0.65
2018-03-18T23:22:55.398Z,-0.66
2018-03-18T23:38:23.499Z,-0.73
2018-03-18T23:40:51.641Z,-0.73
2018-03-18T23:43:19.722Z,-0.76
2018-03-18T23:45:48.554Z,-0.77
2018-03-18T23:48:16.978Z,-0.78
2018-03-18T23:50:48.679Z,-0.77
2018-03-18T23:53:16.811Z,-0.80
2018-03-18T23:55:44.893Z,-0.79
2018-03-18T23:58:12.998Z,-0.82
